sensor_id;sensor_type;location;lat;lon;timestamp;temperature;humidity
30244;DHT22;64022;53.652;9.792;2023-04-15T00:02:18;20.70;60.20
30244;DHT22;64022;53.652;9.792;2023-04-15T00:04:47;20.80;60.30
30244;DHT22;64022;53.652;9.792;2023-04-15T00:07:13;20.70;60.20
30244;DHT22;64022;53.652;9.792;2023-04-15T00:09:41;20.70;60.20
30244;DHT22;64022;53.652;9.792;2023-04-15T00:12:07;20.80;60.20
30244;DHT22;64022;53.652;9.792;2023-04-15T00:14:34;20.70;60.20
30244;DHT22;64022;53.652;9.792;2023-04-15T00:17:01;20.70;60.20
30244;DHT22;64022;53.652;9.792;2023-04-15T00:19:26;20.70;60.10
30244;DHT22;64022;53.652;9.792;2023-04-15T00:21:52;20.70;60.20
30244;DHT22;64022;53.652;9.792;2023-04-15T00:24:17;20.70;60.10
30244;DHT22;64022;53.652;9.792;2023-04-15T00:26:43;20.70;60.10
30244;DHT22;64022;53.652;9.792;2023-04-15T00:29:09;20.70;60.10
30244;DHT22;64022;53.652;9.792;2023-04-15T00:31:35;20.70;60.10
30244;DHT22;64022;53.652;9.792;2023-04-15T00:34:00;20.70;60.10
30244;DHT22;64022;53.652;9.792;2023-04-15T00:36:26;20.70;60.10
30244;DHT22;64022;53.652;9.792;2023-04-15T00:38:52;20.80;60.10
30244;DHT22;64022;53.652;9.792;2023-04-15T00:41:18;20.70;60.10
30244;DHT22;64022;53.652;9.792;2023-04-15T00:43:43;20.70;60.00
30244;DHT22;64022;53.652;9.792;2023-04-15T00:46:12;20.70;60.00
30244;DHT22;64022;53.652;9.792;2023-04-15T00:48:38;20.70;60.00
30244;DHT22;64022;53.652;9.792;2023-04-15T00:51:05;20.70;60.00
30244;DHT22;64022;53.652;9.792;2023-04-15T00:53:31;20.70;60.00
30244;DHT22;64022;53.652;9.792;2023-04-15T00:55:57;20.70;59.80
30244;DHT22;64022;53.652;9.792;2023-04-15T00:58:23;20.70;60.10
30244;DHT22;64022;53.652;9.792;2023-04-15T01:00:48;20.70;60.10
30244;DHT22;64022;53.652;9.792;2023-04-15T01:03:18;20.70;60.00
30244;DHT22;64022;53.652;9.792;2023-04-15T01:05:45;20.70;60.00
30244;DHT22;64022;53.652;9.792;2023-04-15T01:08:10;20.70;60.00
30244;DHT22;64022;53.652;9.792;2023-04-15T01:10:36;20.70;60.00
30244;DHT22;64022;53.652;9.792;2023-04-15T01:13:02;20.70;60.00
30244;DHT22;64022;53.652;9.792;2023-04-15T01:15:28;20.70;60.00
30244;DHT22;64022;53.652;9.792;2023-04-15T01:17:57;20.70;60.00
30244;DHT22;64022;53.652;9.792;2023-04-15T01:20:23;20.70;59.90
30244;DHT22;64022;53.652;9.792;2023-04-15T01:22:49;20.70;59.90
30244;DHT22;64022;53.652;9.792;2023-04-15T01:25:24;20.70;59.90
30244;DHT22;64022;53.652;9.792;2023-04-15T01:27:50;20.70;59.90
30244;DHT22;64022;53.652;9.792;2023-04-15T01:30:15;20.70;59.90
30244;DHT22;64022;53.652;9.792;2023-04-15T01:32:41;20.70;59.90
30244;DHT22;64022;53.652;9.792;2023-04-15T01:35:07;20.70;59.80
30244;DHT22;64022;53.652;9.792;2023-04-15T01:37:33;20.70;59.80
30244;DHT22;64022;53.652;9.792;2023-04-15T01:39:58;20.70;59.80
30244;DHT22;64022;53.652;9.792;2023-04-15T01:42:25;20.70;59.90
30244;DHT22;64022;53.652;9.792;2023-04-15T01:44:52;20.70;59.90
30244;DHT22;64022;53.652;9.792;2023-04-15T01:47:18;20.70;59.80
30244;DHT22;64022;53.652;9.792;2023-04-15T01:49:43;20.70;59.80
30244;DHT22;64022;53.652;9.792;2023-04-15T01:52:09;20.70;59.80
30244;DHT22;64022;53.652;9.792;2023-04-15T01:54:34;20.70;59.80
30244;DHT22;64022;53.652;9.792;2023-04-15T01:57:00;20.70;59.70
30244;DHT22;64022;53.652;9.792;2023-04-15T01:59:27;20.70;59.70
30244;DHT22;64022;53.652;9.792;2023-04-15T02:01:53;20.70;59.70
30244;DHT22;64022;53.652;9.792;2023-04-15T02:04:19;20.70;59.50
30244;DHT22;64022;53.652;9.792;2023-04-15T02:06:44;20.70;59.80
30244;DHT22;64022;53.652;9.792;2023-04-15T02:09:10;20.60;59.70
30244;DHT22;64022;53.652;9.792;2023-04-15T02:11:36;20.70;59.80
30244;DHT22;64022;53.652;9.792;2023-04-15T02:14:02;20.70;59.70
30244;DHT22;64022;53.652;9.792;2023-04-15T02:16:31;20.60;59.70
30244;DHT22;64022;53.652;9.792;2023-04-15T02:18:58;20.70;59.70
30244;DHT22;64022;53.652;9.792;2023-04-15T02:21:25;20.70;59.70
30244;DHT22;64022;53.652;9.792;2023-04-15T02:23:51;20.70;59.70
30244;DHT22;64022;53.652;9.792;2023-04-15T02:26:18;20.70;59.60
30244;DHT22;64022;53.652;9.792;2023-04-15T02:28:44;20.70;59.60
30244;DHT22;64022;53.652;9.792;2023-04-15T02:31:09;20.70;59.60
30244;DHT22;64022;53.652;9.792;2023-04-15T02:33:35;20.70;59.60
30244;DHT22;64022;53.652;9.792;2023-04-15T02:36:02;20.70;59.60
30244;DHT22;64022;53.652;9.792;2023-04-15T02:38:27;20.70;59.60
30244;DHT22;64022;53.652;9.792;2023-04-15T02:40:53;20.70;59.60
30244;DHT22;64022;53.652;9.792;2023-04-15T02:43:19;20.70;59.50
30244;DHT22;64022;53.652;9.792;2023-04-15T02:45:45;20.70;59.50
30244;DHT22;64022;53.652;9.792;2023-04-15T02:48:11;20.70;59.50
30244;DHT22;64022;53.652;9.792;2023-04-15T02:50:37;20.70;59.50
30244;DHT22;64022;53.652;9.792;2023-04-15T02:53:06;20.70;59.50
30244;DHT22;64022;53.652;9.792;2023-04-15T02:55:31;20.60;59.40
30244;DHT22;64022;53.652;9.792;2023-04-15T02:57:57;20.70;59.50
30244;DHT22;64022;53.652;9.792;2023-04-15T03:00:24;20.70;59.50
30244;DHT22;64022;53.652;9.792;2023-04-15T03:02:51;20.70;59.50
30244;DHT22;64022;53.652;9.792;2023-04-15T03:05:21;20.70;59.40
30244;DHT22;64022;53.652;9.792;2023-04-15T03:07:50;20.70;59.40
30244;DHT22;64022;53.652;9.792;2023-04-15T03:10:16;20.70;59.40
30244;DHT22;64022;53.652;9.792;2023-04-15T03:12:41;20.70;59.40
30244;DHT22;64022;53.652;9.792;2023-04-15T03:15:08;20.70;59.30
30244;DHT22;64022;53.652;9.792;2023-04-15T03:17:34;20.70;59.30
30244;DHT22;64022;53.652;9.792;2023-04-15T03:20:01;20.70;59.30
30244;DHT22;64022;53.652;9.792;2023-04-15T03:22:28;20.70;59.30
30244;DHT22;64022;53.652;9.792;2023-04-15T03:24:53;20.70;59.30
30244;DHT22;64022;53.652;9.792;2023-04-15T03:27:19;20.70;59.30
30244;DHT22;64022;53.652;9.792;2023-04-15T03:29:44;20.70;59.30
30244;DHT22;64022;53.652;9.792;2023-04-15T03:32:10;20.70;59.30
30244;DHT22;64022;53.652;9.792;2023-04-15T03:34:38;20.70;59.30
30244;DHT22;64022;53.652;9.792;2023-04-15T03:37:04;20.70;59.30
30244;DHT22;64022;53.652;9.792;2023-04-15T03:39:30;20.60;59.20
30244;DHT22;64022;53.652;9.792;2023-04-15T03:41:55;20.70;59.30
30244;DHT22;64022;53.652;9.792;2023-04-15T03:44:22;20.70;59.20
30244;DHT22;64022;53.652;9.792;2023-04-15T03:46:47;20.70;59.20
30244;DHT22;64022;53.652;9.792;2023-04-15T03:49:13;20.70;59.20
30244;DHT22;64022;53.652;9.792;2023-04-15T03:51:38;20.60;59.10
30244;DHT22;64022;53.652;9.792;2023-04-15T03:54:04;20.70;59.20
30244;DHT22;64022;53.652;9.792;2023-04-15T03:56:30;20.60;59.10
30244;DHT22;64022;53.652;9.792;2023-04-15T03:58:55;20.60;59.10
30244;DHT22;64022;53.652;9.792;2023-04-15T04:01:22;20.70;59.20
30244;DHT22;64022;53.652;9.792;2023-04-15T04:03:47;20.70;59.10
30244;DHT22;64022;53.652;9.792;2023-04-15T04:06:13;20.70;59.10
30244;DHT22;64022;53.652;9.792;2023-04-15T04:08:39;20.70;59.10
30244;DHT22;64022;53.652;9.792;2023-04-15T04:11:05;20.60;58.80
30244;DHT22;64022;53.652;9.792;2023-04-15T04:13:31;20.60;59.10
30244;DHT22;64022;53.652;9.792;2023-04-15T04:15:56;20.60;59.10
30244;DHT22;64022;53.652;9.792;2023-04-15T04:18:22;20.60;59.10
30244;DHT22;64022;53.652;9.792;2023-04-15T04:20:48;20.60;59.00
30244;DHT22;64022;53.652;9.792;2023-04-15T04:23:13;20.70;59.10
30244;DHT22;64022;53.652;9.792;2023-04-15T04:25:39;20.60;59.00
30244;DHT22;64022;53.652;9.792;2023-04-15T04:28:04;20.60;59.00
30244;DHT22;64022;53.652;9.792;2023-04-15T04:30:30;20.60;59.00
30244;DHT22;64022;53.652;9.792;2023-04-15T04:32:55;20.60;58.90
30244;DHT22;64022;53.652;9.792;2023-04-15T04:35:21;20.60;58.90
30244;DHT22;64022;53.652;9.792;2023-04-15T04:37:47;20.70;59.00
30244;DHT22;64022;53.652;9.792;2023-04-15T04:40:12;20.60;58.90
30244;DHT22;64022;53.652;9.792;2023-04-15T04:42:38;20.60;58.90
30244;DHT22;64022;53.652;9.792;2023-04-15T04:45:04;20.60;58.90
30244;DHT22;64022;53.652;9.792;2023-04-15T04:47:29;20.60;58.90
30244;DHT22;64022;53.652;9.792;2023-04-15T04:49:55;20.60;58.90
30244;DHT22;64022;53.652;9.792;2023-04-15T04:52:21;20.60;58.80
30244;DHT22;64022;53.652;9.792;2023-04-15T04:54:46;20.60;58.80
30244;DHT22;64022;53.652;9.792;2023-04-15T04:57:12;20.60;58.80
30244;DHT22;64022;53.652;9.792;2023-04-15T04:59:39;20.60;58.80
30244;DHT22;64022;53.652;9.792;2023-04-15T05:02:04;20.60;58.80
30244;DHT22;64022;53.652;9.792;2023-04-15T05:04:31;20.60;58.70
30244;DHT22;64022;53.652;9.792;2023-04-15T05:06:57;20.60;58.90
30244;DHT22;64022;53.652;9.792;2023-04-15T05:09:23;20.60;58.80
30244;DHT22;64022;53.652;9.792;2023-04-15T05:11:49;20.60;58.80
30244;DHT22;64022;53.652;9.792;2023-04-15T05:14:14;20.60;58.70
30244;DHT22;64022;53.652;9.792;2023-04-15T05:16:40;20.60;58.70
30244;DHT22;64022;53.652;9.792;2023-04-15T05:19:05;20.60;58.70
30244;DHT22;64022;53.652;9.792;2023-04-15T05:21:32;20.60;58.70
30244;DHT22;64022;53.652;9.792;2023-04-15T05:23:57;20.60;58.70
30244;DHT22;64022;53.652;9.792;2023-04-15T05:26:23;20.60;58.70
30244;DHT22;64022;53.652;9.792;2023-04-15T05:28:49;20.60;58.70
30244;DHT22;64022;53.652;9.792;2023-04-15T05:31:15;20.60;58.70
30244;DHT22;64022;53.652;9.792;2023-04-15T05:33:40;20.60;58.70
30244;DHT22;64022;53.652;9.792;2023-04-15T05:36:06;20.60;58.70
30244;DHT22;64022;53.652;9.792;2023-04-15T05:38:32;20.60;58.70
30244;DHT22;64022;53.652;9.792;2023-04-15T05:40:57;20.60;58.70
30244;DHT22;64022;53.652;9.792;2023-04-15T05:43:23;20.60;58.70
30244;DHT22;64022;53.652;9.792;2023-04-15T05:45:48;20.60;58.70
30244;DHT22;64022;53.652;9.792;2023-04-15T05:48:14;20.60;58.70
30244;DHT22;64022;53.652;9.792;2023-04-15T05:50:40;20.60;58.60
30244;DHT22;64022;53.652;9.792;2023-04-15T05:53:07;20.60;58.60
30244;DHT22;64022;53.652;9.792;2023-04-15T05:55:32;20.60;58.60
30244;DHT22;64022;53.652;9.792;2023-04-15T05:57:58;20.60;58.60
30244;DHT22;64022;53.652;9.792;2023-04-15T06:00:24;20.60;58.60
30244;DHT22;64022;53.652;9.792;2023-04-15T06:02:50;20.60;58.60
30244;DHT22;64022;53.652;9.792;2023-04-15T06:05:16;20.60;58.50
30244;DHT22;64022;53.652;9.792;2023-04-15T06:07:42;20.60;58.50
30244;DHT22;64022;53.652;9.792;2023-04-15T06:10:08;20.60;58.50
30244;DHT22;64022;53.652;9.792;2023-04-15T06:12:34;20.60;58.50
30244;DHT22;64022;53.652;9.792;2023-04-15T06:15:00;20.60;58.50
30244;DHT22;64022;53.652;9.792;2023-04-15T06:17:26;20.60;58.50
30244;DHT22;64022;53.652;9.792;2023-04-15T06:19:51;20.60;58.50
30244;DHT22;64022;53.652;9.792;2023-04-15T06:22:21;20.60;58.50
30244;DHT22;64022;53.652;9.792;2023-04-15T06:24:47;20.60;58.50
30244;DHT22;64022;53.652;9.792;2023-04-15T06:27:15;20.60;58.50
30244;DHT22;64022;53.652;9.792;2023-04-15T06:29:41;20.60;58.50
30244;DHT22;64022;53.652;9.792;2023-04-15T06:32:06;20.60;58.40
30244;DHT22;64022;53.652;9.792;2023-04-15T06:34:33;20.60;58.40
30244;DHT22;64022;53.652;9.792;2023-04-15T06:36:58;20.60;58.50
30244;DHT22;64022;53.652;9.792;2023-04-15T06:39:25;20.60;58.50
30244;DHT22;64022;53.652;9.792;2023-04-15T06:41:51;20.60;58.20
30244;DHT22;64022;53.652;9.792;2023-04-15T06:44:17;20.60;58.60
30244;DHT22;64022;53.652;9.792;2023-04-15T06:46:43;20.60;58.60
30244;DHT22;64022;53.652;9.792;2023-04-15T06:49:09;20.60;58.60
30244;DHT22;64022;53.652;9.792;2023-04-15T06:51:36;20.60;58.60
30244;DHT22;64022;53.652;9.792;2023-04-15T06:54:05;20.60;58.60
30244;DHT22;64022;53.652;9.792;2023-04-15T06:56:32;20.60;58.60
30244;DHT22;64022;53.652;9.792;2023-04-15T06:58:57;20.60;58.60
30244;DHT22;64022;53.652;9.792;2023-04-15T07:01:23;20.60;58.60
30244;DHT22;64022;53.652;9.792;2023-04-15T07:03:48;20.60;58.60
30244;DHT22;64022;53.652;9.792;2023-04-15T07:06:14;20.60;58.60
30244;DHT22;64022;53.652;9.792;2023-04-15T07:08:40;20.60;58.60
30244;DHT22;64022;53.652;9.792;2023-04-15T07:11:06;20.60;58.60
30244;DHT22;64022;53.652;9.792;2023-04-15T07:13:32;20.60;58.60
30244;DHT22;64022;53.652;9.792;2023-04-15T07:15:57;20.60;58.70
30244;DHT22;64022;53.652;9.792;2023-04-15T07:18:23;20.60;58.70
30244;DHT22;64022;53.652;9.792;2023-04-15T07:20:48;20.60;58.70
30244;DHT22;64022;53.652;9.792;2023-04-15T07:23:14;20.60;58.70
30244;DHT22;64022;53.652;9.792;2023-04-15T07:25:40;20.60;58.70
30244;DHT22;64022;53.652;9.792;2023-04-15T07:28:06;20.60;58.70
30244;DHT22;64022;53.652;9.792;2023-04-15T07:30:31;20.60;58.70
30244;DHT22;64022;53.652;9.792;2023-04-15T07:32:57;20.60;58.70
30244;DHT22;64022;53.652;9.792;2023-04-15T07:35:23;20.60;58.70
30244;DHT22;64022;53.652;9.792;2023-04-15T07:37:49;20.60;58.70
30244;DHT22;64022;53.652;9.792;2023-04-15T07:40:15;20.60;58.70
30244;DHT22;64022;53.652;9.792;2023-04-15T07:42:41;20.60;58.70
30244;DHT22;64022;53.652;9.792;2023-04-15T07:45:08;20.60;58.70
30244;DHT22;64022;53.652;9.792;2023-04-15T07:47:33;20.60;58.70
30244;DHT22;64022;53.652;9.792;2023-04-15T07:49:59;20.60;58.70
30244;DHT22;64022;53.652;9.792;2023-04-15T07:52:25;20.60;58.70
30244;DHT22;64022;53.652;9.792;2023-04-15T07:54:50;20.60;58.80
30244;DHT22;64022;53.652;9.792;2023-04-15T07:57:16;20.60;58.80
30244;DHT22;64022;53.652;9.792;2023-04-15T07:59:42;20.60;58.80
30244;DHT22;64022;53.652;9.792;2023-04-15T08:02:08;20.60;58.80
30244;DHT22;64022;53.652;9.792;2023-04-15T08:04:34;20.60;58.80
30244;DHT22;64022;53.652;9.792;2023-04-15T08:06:59;20.60;58.80
30244;DHT22;64022;53.652;9.792;2023-04-15T08:09:25;20.60;58.90
30244;DHT22;64022;53.652;9.792;2023-04-15T08:11:51;20.60;58.90
30244;DHT22;64022;53.652;9.792;2023-04-15T08:14:17;20.60;58.90
30244;DHT22;64022;53.652;9.792;2023-04-15T08:16:43;20.60;58.90
30244;DHT22;64022;53.652;9.792;2023-04-15T08:19:08;20.60;58.90
30244;DHT22;64022;53.652;9.792;2023-04-15T08:21:34;20.60;59.40
30244;DHT22;64022;53.652;9.792;2023-04-15T08:23:59;20.60;58.90
30244;DHT22;64022;53.652;9.792;2023-04-15T08:26:26;20.60;58.90
30244;DHT22;64022;53.652;9.792;2023-04-15T08:28:51;20.60;58.90
30244;DHT22;64022;53.652;9.792;2023-04-15T08:31:18;20.60;58.90
30244;DHT22;64022;53.652;9.792;2023-04-15T08:33:44;20.60;58.90
30244;DHT22;64022;53.652;9.792;2023-04-15T08:36:10;20.60;59.00
30244;DHT22;64022;53.652;9.792;2023-04-15T08:38:35;20.60;59.00
30244;DHT22;64022;53.652;9.792;2023-04-15T08:41:17;20.60;59.00
30244;DHT22;64022;53.652;9.792;2023-04-15T08:43:58;20.60;58.90
30244;DHT22;64022;53.652;9.792;2023-04-15T08:46:25;20.60;59.00
30244;DHT22;64022;53.652;9.792;2023-04-15T08:48:51;20.60;59.00
30244;DHT22;64022;53.652;9.792;2023-04-15T08:51:19;20.60;59.00
30244;DHT22;64022;53.652;9.792;2023-04-15T08:53:45;20.60;59.00
30244;DHT22;64022;53.652;9.792;2023-04-15T08:56:13;20.60;59.00
30244;DHT22;64022;53.652;9.792;2023-04-15T08:58:40;20.60;58.90
30244;DHT22;64022;53.652;9.792;2023-04-15T09:01:06;20.60;59.00
30244;DHT22;64022;53.652;9.792;2023-04-15T09:03:32;20.60;58.90
30244;DHT22;64022;53.652;9.792;2023-04-15T09:05:58;20.60;58.90
30244;DHT22;64022;53.652;9.792;2023-04-15T09:08:24;20.60;58.70
30244;DHT22;64022;53.652;9.792;2023-04-15T09:10:49;20.60;59.10
30244;DHT22;64022;53.652;9.792;2023-04-15T09:13:15;20.60;59.10
30244;DHT22;64022;53.652;9.792;2023-04-15T09:15:41;20.60;59.10
30244;DHT22;64022;53.652;9.792;2023-04-15T09:18:07;20.60;59.10
30244;DHT22;64022;53.652;9.792;2023-04-15T09:20:41;20.60;59.10
30244;DHT22;64022;53.652;9.792;2023-04-15T09:23:11;20.60;59.00
30244;DHT22;64022;53.652;9.792;2023-04-15T09:25:39;20.60;59.00
30244;DHT22;64022;53.652;9.792;2023-04-15T09:28:06;20.60;59.00
30244;DHT22;64022;53.652;9.792;2023-04-15T09:30:32;20.70;59.10
30244;DHT22;64022;53.652;9.792;2023-04-15T09:33:00;20.60;59.00
30244;DHT22;64022;53.652;9.792;2023-04-15T09:35:33;20.60;59.00
30244;DHT22;64022;53.652;9.792;2023-04-15T09:38:06;20.60;59.00
30244;DHT22;64022;53.652;9.792;2023-04-15T09:40:34;20.60;59.00
30244;DHT22;64022;53.652;9.792;2023-04-15T09:43:00;20.60;59.00
30244;DHT22;64022;53.652;9.792;2023-04-15T09:45:31;20.60;59.00
30244;DHT22;64022;53.652;9.792;2023-04-15T09:47:58;20.60;58.90
30244;DHT22;64022;53.652;9.792;2023-04-15T09:50:27;20.60;58.90
30244;DHT22;64022;53.652;9.792;2023-04-15T09:52:53;20.60;58.90
30244;DHT22;64022;53.652;9.792;2023-04-15T09:55:19;20.70;58.90
30244;DHT22;64022;53.652;9.792;2023-04-15T09:57:45;20.60;58.80
30244;DHT22;64022;53.652;9.792;2023-04-15T10:00:14;20.70;58.90
30244;DHT22;64022;53.652;9.792;2023-04-15T10:02:41;20.60;58.90
30244;DHT22;64022;53.652;9.792;2023-04-15T10:05:10;20.60;58.90
30244;DHT22;64022;53.652;9.792;2023-04-15T10:07:38;20.60;58.80
30244;DHT22;64022;53.652;9.792;2023-04-15T10:10:06;20.60;58.90
30244;DHT22;64022;53.652;9.792;2023-04-15T10:12:31;20.60;58.80
30244;DHT22;64022;53.652;9.792;2023-04-15T10:15:00;20.70;58.90
30244;DHT22;64022;53.652;9.792;2023-04-15T10:17:29;20.70;59.00
30244;DHT22;64022;53.652;9.792;2023-04-15T10:20:00;20.70;58.80
30244;DHT22;64022;53.652;9.792;2023-04-15T10:22:26;20.70;58.80
30244;DHT22;64022;53.652;9.792;2023-04-15T10:24:52;20.60;58.40
30244;DHT22;64022;53.652;9.792;2023-04-15T10:27:19;20.60;58.50
30244;DHT22;64022;53.652;9.792;2023-04-15T10:29:45;20.60;58.20
30244;DHT22;64022;53.652;9.792;2023-04-15T10:32:12;20.50;58.10
30244;DHT22;64022;53.652;9.792;2023-04-15T10:34:38;20.60;58.00
30244;DHT22;64022;53.652;9.792;2023-04-15T10:37:04;20.50;58.40
30244;DHT22;64022;53.652;9.792;2023-04-15T10:39:37;20.50;57.80
30244;DHT22;64022;53.652;9.792;2023-04-15T10:42:14;20.50;57.90
30244;DHT22;64022;53.652;9.792;2023-04-15T10:44:58;20.50;57.90
30244;DHT22;64022;53.652;9.792;2023-04-15T10:47:24;20.50;57.80
30244;DHT22;64022;53.652;9.792;2023-04-15T10:49:51;20.50;57.70
30244;DHT22;64022;53.652;9.792;2023-04-15T10:52:24;20.50;57.60
30244;DHT22;64022;53.652;9.792;2023-04-15T10:57:34;20.40;58.10
30244;DHT22;64022;53.652;9.792;2023-04-15T11:00:08;20.40;57.40
30244;DHT22;64022;53.652;9.792;2023-04-15T11:02:48;20.40;57.40
30244;DHT22;64022;53.652;9.792;2023-04-15T11:05:16;20.40;57.50
30244;DHT22;64022;53.652;9.792;2023-04-15T11:07:54;20.40;57.50
30244;DHT22;64022;53.652;9.792;2023-04-15T11:13:02;20.40;57.40
30244;DHT22;64022;53.652;9.792;2023-04-15T11:17:58;20.40;57.20
30244;DHT22;64022;53.652;9.792;2023-04-15T11:20:24;20.40;57.10
30244;DHT22;64022;53.652;9.792;2023-04-15T11:22:53;20.40;57.10
30244;DHT22;64022;53.652;9.792;2023-04-15T11:25:31;20.40;57.00
30244;DHT22;64022;53.652;9.792;2023-04-15T11:28:00;20.40;57.00
30244;DHT22;64022;53.652;9.792;2023-04-15T11:30:32;20.40;56.90
30244;DHT22;64022;53.652;9.792;2023-04-15T11:33:00;20.40;56.90
30244;DHT22;64022;53.652;9.792;2023-04-15T11:35:26;20.40;56.80
30244;DHT22;64022;53.652;9.792;2023-04-15T11:37:53;20.40;56.60
30244;DHT22;64022;53.652;9.792;2023-04-15T11:40:29;20.30;56.50
30244;DHT22;64022;53.652;9.792;2023-04-15T11:43:25;20.30;56.60
30244;DHT22;64022;53.652;9.792;2023-04-15T11:45:54;20.40;57.00
30244;DHT22;64022;53.652;9.792;2023-04-15T11:48:23;20.30;56.50
30244;DHT22;64022;53.652;9.792;2023-04-15T11:50:56;20.30;56.50
30244;DHT22;64022;53.652;9.792;2023-04-15T11:53:22;20.30;56.40
30244;DHT22;64022;53.652;9.792;2023-04-15T11:55:50;20.30;56.30
30244;DHT22;64022;53.652;9.792;2023-04-15T11:58:21;20.30;56.10
30244;DHT22;64022;53.652;9.792;2023-04-15T12:00:52;20.30;56.00
30244;DHT22;64022;53.652;9.792;2023-04-15T12:06:22;20.20;55.50
30244;DHT22;64022;53.652;9.792;2023-04-15T12:13:54;20.20;55.10
30244;DHT22;64022;53.652;9.792;2023-04-15T12:16:22;20.20;54.80
30244;DHT22;64022;53.652;9.792;2023-04-15T12:18:52;20.20;54.70
30244;DHT22;64022;53.652;9.792;2023-04-15T12:21:20;20.20;54.60
30244;DHT22;64022;53.652;9.792;2023-04-15T12:24:19;20.20;54.50
30244;DHT22;64022;53.652;9.792;2023-04-15T12:26:48;20.20;54.50
30244;DHT22;64022;53.652;9.792;2023-04-15T12:29:15;20.10;54.10
30244;DHT22;64022;53.652;9.792;2023-04-15T12:31:50;20.20;54.00
30244;DHT22;64022;53.652;9.792;2023-04-15T12:34:17;20.10;53.70
30244;DHT22;64022;53.652;9.792;2023-04-15T12:36:44;20.10;53.60
30244;DHT22;64022;53.652;9.792;2023-04-15T12:39:10;20.10;53.60
30244;DHT22;64022;53.652;9.792;2023-04-15T12:41:35;20.10;53.50
30244;DHT22;64022;53.652;9.792;2023-04-15T12:44:01;20.10;53.40
30244;DHT22;64022;53.652;9.792;2023-04-15T12:46:26;20.10;53.40
30244;DHT22;64022;53.652;9.792;2023-04-15T12:48:52;20.10;53.20
30244;DHT22;64022;53.652;9.792;2023-04-15T12:51:19;20.10;53.20
30244;DHT22;64022;53.652;9.792;2023-04-15T12:53:48;20.10;53.00
30244;DHT22;64022;53.652;9.792;2023-04-15T12:56:14;20.10;52.90
30244;DHT22;64022;53.652;9.792;2023-04-15T12:58:41;20.10;52.90
30244;DHT22;64022;53.652;9.792;2023-04-15T13:01:07;20.10;52.70
30244;DHT22;64022;53.652;9.792;2023-04-15T13:03:34;20.10;52.50
30244;DHT22;64022;53.652;9.792;2023-04-15T13:06:00;20.10;52.50
30244;DHT22;64022;53.652;9.792;2023-04-15T13:08:27;20.10;53.00
30244;DHT22;64022;53.652;9.792;2023-04-15T13:10:53;20.10;52.70
30244;DHT22;64022;53.652;9.792;2023-04-15T13:13:19;20.10;52.80
30244;DHT22;64022;53.652;9.792;2023-04-15T13:15:46;20.10;52.90
30244;DHT22;64022;53.652;9.792;2023-04-15T13:18:11;20.10;53.00
30244;DHT22;64022;53.652;9.792;2023-04-15T13:20:37;20.10;53.00
30244;DHT22;64022;53.652;9.792;2023-04-15T13:23:03;20.10;53.00
30244;DHT22;64022;53.652;9.792;2023-04-15T13:25:29;20.20;53.10
30244;DHT22;64022;53.652;9.792;2023-04-15T13:27:55;20.20;53.20
30244;DHT22;64022;53.652;9.792;2023-04-15T13:30:21;20.20;53.20
30244;DHT22;64022;53.652;9.792;2023-04-15T13:32:48;20.20;53.20
30244;DHT22;64022;53.652;9.792;2023-04-15T13:35:16;20.20;53.20
30244;DHT22;64022;53.652;9.792;2023-04-15T13:37:42;20.20;53.30
30244;DHT22;64022;53.652;9.792;2023-04-15T13:40:07;20.30;53.30
30244;DHT22;64022;53.652;9.792;2023-04-15T13:42:33;20.30;53.30
30244;DHT22;64022;53.652;9.792;2023-04-15T13:45:00;20.20;53.30
30244;DHT22;64022;53.652;9.792;2023-04-15T13:47:29;20.30;53.40
30244;DHT22;64022;53.652;9.792;2023-04-15T13:49:55;20.30;53.40
30244;DHT22;64022;53.652;9.792;2023-04-15T13:52:22;20.30;53.40
30244;DHT22;64022;53.652;9.792;2023-04-15T13:54:49;20.30;53.40
30244;DHT22;64022;53.652;9.792;2023-04-15T13:57:15;20.30;53.50
30244;DHT22;64022;53.652;9.792;2023-04-15T13:59:40;20.30;53.50
30244;DHT22;64022;53.652;9.792;2023-04-15T14:02:06;20.30;54.00
30244;DHT22;64022;53.652;9.792;2023-04-15T14:04:32;20.40;53.60
30244;DHT22;64022;53.652;9.792;2023-04-15T14:06:58;20.30;53.60
30244;DHT22;64022;53.652;9.792;2023-04-15T14:09:23;20.30;53.60
30244;DHT22;64022;53.652;9.792;2023-04-15T14:11:50;20.40;53.70
30244;DHT22;64022;53.652;9.792;2023-04-15T14:14:15;20.40;53.80
30244;DHT22;64022;53.652;9.792;2023-04-15T14:16:42;20.40;53.80
30244;DHT22;64022;53.652;9.792;2023-04-15T14:19:07;20.40;53.80
30244;DHT22;64022;53.652;9.792;2023-04-15T14:21:33;20.40;53.90
30244;DHT22;64022;53.652;9.792;2023-04-15T14:23:59;20.40;53.90
30244;DHT22;64022;53.652;9.792;2023-04-15T14:26:24;20.40;53.90
30244;DHT22;64022;53.652;9.792;2023-04-15T14:28:50;20.40;54.00
30244;DHT22;64022;53.652;9.792;2023-04-15T14:31:17;20.50;54.10
30244;DHT22;64022;53.652;9.792;2023-04-15T14:33:43;20.40;54.00
30244;DHT22;64022;53.652;9.792;2023-04-15T14:36:09;20.40;54.10
30244;DHT22;64022;53.652;9.792;2023-04-15T14:38:35;20.50;54.20
30244;DHT22;64022;53.652;9.792;2023-04-15T14:41:07;20.50;54.20
30244;DHT22;64022;53.652;9.792;2023-04-15T14:43:34;20.50;54.20
30244;DHT22;64022;53.652;9.792;2023-04-15T14:45:59;20.50;54.30
30244;DHT22;64022;53.652;9.792;2023-04-15T14:48:25;20.50;54.30
30244;DHT22;64022;53.652;9.792;2023-04-15T14:50:52;20.50;54.30
30244;DHT22;64022;53.652;9.792;2023-04-15T14:53:17;20.50;54.40
30244;DHT22;64022;53.652;9.792;2023-04-15T14:55:43;20.50;54.40
30244;DHT22;64022;53.652;9.792;2023-04-15T14:58:10;20.50;54.50
30244;DHT22;64022;53.652;9.792;2023-04-15T15:00:37;20.50;54.50
30244;DHT22;64022;53.652;9.792;2023-04-15T15:03:04;20.50;54.60
30244;DHT22;64022;53.652;9.792;2023-04-15T15:05:40;20.50;54.60
30244;DHT22;64022;53.652;9.792;2023-04-15T15:08:06;20.50;54.70
30244;DHT22;64022;53.652;9.792;2023-04-15T15:10:33;20.60;54.80
30244;DHT22;64022;53.652;9.792;2023-04-15T15:13:03;20.50;54.70
30244;DHT22;64022;53.652;9.792;2023-04-15T15:15:28;20.60;54.80
30244;DHT22;64022;53.652;9.792;2023-04-15T15:17:54;20.50;54.80
30244;DHT22;64022;53.652;9.792;2023-04-15T15:20:20;20.50;54.80
30244;DHT22;64022;53.652;9.792;2023-04-15T15:22:45;20.50;54.90
30244;DHT22;64022;53.652;9.792;2023-04-15T15:25:11;20.50;54.90
30244;DHT22;64022;53.652;9.792;2023-04-15T15:27:37;20.50;55.00
30244;DHT22;64022;53.652;9.792;2023-04-15T15:30:04;20.50;55.00
30244;DHT22;64022;53.652;9.792;2023-04-15T15:32:31;20.50;55.10
30244;DHT22;64022;53.652;9.792;2023-04-15T15:34:56;20.50;55.20
30244;DHT22;64022;53.652;9.792;2023-04-15T15:37:22;20.60;55.30
30244;DHT22;64022;53.652;9.792;2023-04-15T15:39:47;20.60;54.20
30244;DHT22;64022;53.652;9.792;2023-04-15T15:42:15;20.50;53.60
30244;DHT22;64022;53.652;9.792;2023-04-15T15:44:41;20.50;53.30